Time;durP1;ratioP1;P1;durP2;ratioP2;P2;SDS_P1;SDS_P2;PMS_P1;PMS_P2;Temp;Humidity;BMP_temperature;BMP_pressure;BME280_temperature;BME280_humidity;BME280_pressure;Samples;Min_cycle;Max_cycle;Signal;HPM_P1;HPM_P2
2023/06/02 00:02:39;;;;;;;10.77;2.50;;;;;;;11.53;63.71;102015.03;5023202;28;20050;-76
2023/06/02 00:05:24;;;;;;;5.20;2.20;;;;;;;11.51;63.59;102011.53;5028336;28;20054;-76
2023/06/02 00:08:09;;;;;;;8.88;2.78;;;;;;;11.50;63.67;102009.81;5027229;28;20513;-76
2023/06/02 00:10:55;;;;;;;6.80;2.55;;;;;;;11.47;63.78;102009.88;5025313;28;20562;-76
2023/06/02 00:13:41;;;;;;;6.40;2.42;;;;;;;11.42;64.38;102006.41;5009941;28;20051;-76
2023/06/02 00:16:27;;;;;;;10.43;2.60;;;;;;;11.46;64.67;102013.41;5028335;28;20054;-75
2023/06/02 00:19:14;;;;;;;6.70;2.40;;;;;;;11.50;63.97;102013.34;5012478;28;20042;-77
2023/06/02 00:22:05;;;;;;;10.20;2.67;;;;;;;11.44;64.18;102017.81;5022790;28;20584;-76
2023/06/02 00:24:52;;;;;;;7.47;2.70;;;;;;;11.44;63.73;102017.81;5023959;28;20561;-76
2023/06/02 00:27:37;;;;;;;7.30;2.50;;;;;;;11.36;64.39;102011.78;5024063;28;20042;-76
2023/06/02 00:30:23;;;;;;;8.60;2.50;;;;;;;11.43;63.34;102010.81;5036125;28;20930;-75
2023/06/02 00:33:08;;;;;;;8.73;2.45;;;;;;;11.37;63.45;102008.25;5017466;28;20085;-76
2023/06/02 00:35:53;;;;;;;8.15;2.63;;;;;;;11.25;63.69;102002.25;5025673;28;20526;-75
2023/06/02 00:38:39;;;;;;;11.05;2.67;;;;;;;11.19;64.06;102000.59;5012716;28;20164;-75
2023/06/02 00:41:25;;;;;;;7.03;2.45;;;;;;;11.19;63.74;102000.59;5025108;28;20756;-74
2023/06/02 00:44:12;;;;;;;11.23;2.60;;;;;;;11.14;64.20;102002.41;5025405;28;20798;-75
2023/06/02 00:46:57;;;;;;;7.70;2.28;;;;;;;11.24;63.63;102002.31;5008709;28;20054;-75
2023/06/02 00:49:43;;;;;;;8.80;2.60;;;;;;;11.22;63.16;101996.16;5024822;28;20594;-75
2023/06/02 00:52:31;;;;;;;9.55;2.50;;;;;;;11.18;63.17;101995.34;5023290;28;20046;-75
2023/06/02 00:55:16;;;;;;;7.05;2.35;;;;;;;11.11;63.17;101993.66;5012608;28;20057;-75
2023/06/02 00:58:03;;;;;;;11.35;2.95;;;;;;;11.09;63.60;101990.19;5026793;28;20041;-75
2023/06/02 01:00:51;;;;;;;7.50;2.35;;;;;;;11.17;63.94;101990.94;5022836;28;20046;-75
2023/06/02 01:03:43;;;;;;;11.18;2.63;;;;;;;11.27;63.56;102000.47;5024091;28;20685;-75
2023/06/02 01:06:35;;;;;;;11.60;2.60;;;;;;;11.30;63.19;101995.13;4985833;28;20061;-75
2023/06/02 01:09:21;;;;;;;9.07;2.58;;;;;;;11.24;63.72;101997.03;5025833;28;20042;-75
2023/06/02 01:12:07;;;;;;;8.00;2.47;;;;;;;11.27;64.03;102002.22;5005648;28;20050;-75
2023/06/02 01:14:53;;;;;;;12.95;2.80;;;;;;;11.30;63.82;102002.19;5019935;28;20046;-75
2023/06/02 01:17:41;;;;;;;9.52;2.70;;;;;;;11.28;63.78;102006.63;5024140;28;20053;-76
2023/06/02 01:20:28;;;;;;;9.75;2.30;;;;;;;11.29;63.24;101998.66;5020811;28;20544;-77
2023/06/02 01:23:23;;;;;;;9.07;2.65;;;;;;;11.26;63.76;102011.03;5009545;28;20074;-76
2023/06/02 01:26:11;;;;;;;11.63;2.55;;;;;;;11.27;63.58;102003.13;5020569;28;20057;-77
2023/06/02 01:28:56;;;;;;;11.07;2.75;;;;;;;11.26;63.83;101993.47;5011218;28;20054;-75
2023/06/02 01:31:51;;;;;;;9.52;2.45;;;;;;;11.25;63.98;101998.75;5021891;28;20054;-76
2023/06/02 01:34:56;;;;;;;9.35;2.63;;;;;;;11.24;64.47;101991.75;5019717;28;20042;-77
2023/06/02 01:37:54;;;;;;;;;;;;;;;11.30;64.07;101991.63;4998712;28;20050;-77
2023/06/02 01:40:41;;;;;;;12.98;2.60;;;;;;;11.25;64.14;101986.44;5026955;28;19925;-76
2023/06/02 01:43:32;;;;;;;9.00;2.28;;;;;;;11.31;64.10;101993.38;5019925;28;20541;-76
2023/06/02 01:46:18;;;;;;;10.35;2.75;;;;;;;11.33;64.12;101981.03;5005792;28;20035;-76
2023/06/02 01:49:03;;;;;;;11.25;2.95;;;;;;;11.26;64.31;101988.19;5018933;28;20173;-76
2023/06/02 01:51:50;;;;;;;9.45;3.08;;;;;;;11.29;64.37;101984.63;5020534;28;20081;-77
2023/06/02 01:54:36;;;;;;;13.82;2.70;;;;;;;11.34;64.27;101988.94;5010070;28;20054;-78
2023/06/02 01:57:22;;;;;;;11.88;2.70;;;;;;;11.36;63.91;101986.25;5008483;28;20042;-77
2023/06/02 02:00:09;;;;;;;11.90;2.90;;;;;;;11.31;64.35;101986.31;5012084;28;20081;-76
2023/06/02 02:02:58;;;;;;;10.63;2.63;;;;;;;11.33;64.26;101988.97;5026610;28;20049;-76
2023/06/02 02:05:43;;;;;;;12.73;3.00;;;;;;;11.29;64.51;101993.38;5025316;28;20168;-76
2023/06/02 02:08:29;;;;;;;13.25;2.83;;;;;;;11.29;64.44;101988.09;5015958;28;20741;-77
2023/06/02 02:11:14;;;;;;;10.48;2.50;;;;;;;11.28;64.88;101988.16;5023232;28;20054;-77
2023/06/02 02:14:04;;;;;;;8.52;2.58;;;;;;;11.29;64.60;101989.88;5021601;28;20054;-76
2023/06/02 02:16:51;;;;;;;11.00;2.75;;;;;;;11.31;64.65;101990.75;5026785;28;20050;-77
2023/06/02 02:19:38;;;;;;;10.30;2.80;;;;;;;11.31;64.75;101985.47;5023640;28;20153;-77
2023/06/02 02:22:23;;;;;;;10.23;2.70;;;;;;;11.26;64.30;101988.19;5022565;28;20053;-77
2023/06/02 02:25:09;;;;;;;9.38;2.83;;;;;;;11.24;64.38;101984.69;5025360;28;20046;-78
2023/06/02 02:27:55;;;;;;;12.10;2.88;;;;;;;11.30;64.10;101983.72;4994031;28;20216;-78
2023/06/02 02:30:40;;;;;;;9.55;2.75;;;;;;;11.30;64.51;101989.00;5031333;28;20049;-79
2023/06/02 02:33:27;;;;;;;10.48;2.88;;;;;;;11.29;64.24;101988.09;5007703;28;20064;-78
2023/06/02 02:36:13;;;;;;;10.55;2.60;;;;;;;11.25;64.51;101997.00;5023591;28;20176;-77
2023/06/02 02:38:58;;;;;;;11.27;2.60;;;;;;;11.27;64.77;101989.94;5024296;28;20743;-77
2023/06/02 02:41:43;;;;;;;11.82;2.80;;;;;;;11.27;64.68;101994.31;5022899;28;20050;-77
2023/06/02 02:44:29;;;;;;;12.27;2.97;;;;;;;11.24;64.89;101997.88;5007001;28;20046;-78
2023/06/02 02:47:14;;;;;;;11.57;2.85;;;;;;;11.29;64.23;101998.66;5016544;28;20124;-77
2023/06/02 02:50:00;;;;;;;11.73;3.10;;;;;;;11.20;64.79;101998.81;5017126;28;20893;-77
2023/06/02 02:52:46;;;;;;;9.93;2.90;;;;;;;11.26;64.33;102001.38;5028540;28;20058;-77
2023/06/02 02:55:32;;;;;;;8.95;2.92;;;;;;;11.18;64.38;101997.97;5010908;28;20898;-75
2023/06/02 02:58:19;;;;;;;13.07;3.22;;;;;;;11.17;64.61;101996.22;5012571;28;20050;-76
2023/06/02 03:01:05;;;;;;;8.40;2.80;;;;;;;11.13;64.53;102003.31;5024850;28;20510;-76
2023/06/02 03:03:53;;;;;;;10.18;2.85;;;;;;;11.11;64.94;102006.84;5025423;28;20141;-76
2023/06/02 03:06:40;;;;;;;9.30;2.80;;;;;;;11.12;65.00;102001.56;4999124;28;20050;-75
2023/06/02 03:09:28;;;;;;;16.15;3.42;;;;;;;11.14;65.13;101998.91;5012066;28;20046;-78
2023/06/02 03:12:16;;;;;;;15.77;4.00;;;;;;;11.16;64.12;102007.69;5014869;28;20156;-75
2023/06/02 03:15:01;;;;;;;11.05;3.47;;;;;;;11.06;64.33;102011.34;5012280;28;20576;-76
2023/06/02 03:17:50;;;;;;;10.35;3.28;;;;;;;11.01;64.58;102004.34;5027286;28;20057;-79
2023/06/02 03:20:36;;;;;;;12.95;3.20;;;;;;;10.93;64.74;102013.28;5014123;28;20574;-78
2023/06/02 03:23:22;;;;;;;10.07;2.70;;;;;;;10.90;64.97;102008.88;5017712;28;20054;-77
2023/06/02 03:26:08;;;;;;;15.77;3.42;;;;;;;10.91;64.13;102010.63;5025750;28;20050;-78
2023/06/02 03:28:53;;;;;;;14.32;3.15;;;;;;;10.83;64.36;102021.31;5009630;28;20053;-78
2023/06/02 03:31:41;;;;;;;14.45;3.60;;;;;;;10.78;64.68;102012.56;5028186;28;20569;-75
2023/06/02 03:34:28;;;;;;;9.95;3.00;;;;;;;10.82;64.32;102013.41;5026306;28;20050;-76
2023/06/02 03:37:15;;;;;;;7.97;3.08;;;;;;;10.76;63.71;102013.47;4998809;28;20044;-75
2023/06/02 03:40:05;;;;;;;12.30;3.17;;;;;;;10.70;63.99;102022.34;5012864;28;20049;-77
2023/06/02 03:42:51;;;;;;;9.20;3.00;;;;;;;10.67;64.21;102018.00;5026601;28;20049;-77
2023/06/02 03:45:36;;;;;;;9.00;3.15;;;;;;;10.63;64.41;102018.91;5012742;28;20041;-77
2023/06/02 03:48:21;;;;;;;8.82;3.00;;;;;;;10.67;64.25;102015.34;5013738;28;20137;-77
2023/06/02 03:51:07;;;;;;;10.75;3.00;;;;;;;10.64;64.42;102018.00;5024997;28;20038;-76
2023/06/02 03:53:55;;;;;;;10.25;3.08;;;;;;;10.61;64.78;102011.91;5020969;28;20046;-77
2023/06/02 03:56:41;;;;;;;7.63;2.83;;;;;;;10.64;64.76;102025.03;5014070;28;20038;-77
2023/06/02 03:59:26;;;;;;;12.23;2.85;;;;;;;10.64;65.00;102019.75;5025088;28;20564;-76
2023/06/02 04:02:13;;;;;;;8.77;2.78;;;;;;;10.72;65.35;102025.84;5022416;28;20101;-76
2023/06/02 04:04:58;;;;;;;11.68;3.17;;;;;;;10.69;65.13;102026.72;5028028;28;20128;-77
2023/06/02 04:07:43;;;;;;;8.52;3.03;;;;;;;10.74;65.37;102023.19;5027424;28;20510;-77
2023/06/02 04:10:30;;;;;;;14.45;3.30;;;;;;;10.80;65.08;102026.63;5021069;28;20037;-77
2023/06/02 04:13:15;;;;;;;10.52;3.25;;;;;;;10.78;64.71;102031.03;5012027;28;20103;-74
2023/06/02 04:16:04;;;;;;;14.25;3.65;;;;;;;10.79;65.37;102027.50;5009225;28;20054;-71
2023/06/02 04:18:51;;;;;;;12.32;3.45;;;;;;;10.87;65.58;102030.06;5012268;28;20049;-74
2023/06/02 04:21:36;;;;;;;8.57;3.00;;;;;;;10.91;64.81;102023.84;5016262;28;20046;-74
2023/06/02 04:24:22;;;;;;;6.15;2.67;;;;;;;10.90;64.38;102037.91;5022320;28;20058;-75
2023/06/02 04:27:08;;;;;;;10.35;3.15;;;;;;;10.81;64.20;102033.66;5026446;28;20076;-75
2023/06/02 04:29:53;;;;;;;9.27;3.13;;;;;;;10.78;64.34;102033.66;5010921;28;20094;-75
2023/06/02 04:32:39;;;;;;;8.95;2.80;;;;;;;10.71;64.83;102037.28;5008470;28;20343;-75
2023/06/02 04:35:25;;;;;;;8.88;2.60;;;;;;;10.70;64.62;102041.66;5017828;28;20049;-77
2023/06/02 04:38:12;;;;;;;10.48;2.70;;;;;;;10.71;64.93;102040.78;5005132;28;20649;-75
2023/06/02 04:41:01;;;;;;;7.90;2.28;;;;;;;10.78;64.79;102043.38;5032050;28;20045;-75
2023/06/02 04:43:48;;;;;;;10.50;2.30;;;;;;;10.81;63.89;102031.00;5008350;28;20121;-75
2023/06/02 04:46:35;;;;;;;8.35;2.80;;;;;;;10.76;63.92;102038.09;5025381;28;20525;-70
2023/06/02 04:49:36;;;;;;;11.38;2.65;;;;;;;10.78;64.94;102033.66;5013213;28;20101;-73
2023/06/02 04:52:22;;;;;;;10.95;2.65;;;;;;;10.87;63.91;102038.84;5024396;28;20049;-75
2023/06/02 04:55:09;;;;;;;7.82;2.33;;;;;;;10.91;62.70;102047.56;5014290;28;21019;-74
2023/06/02 04:57:57;;;;;;;8.95;2.20;;;;;;;10.86;62.31;102042.34;5015591;28;20049;-71
2023/06/02 05:00:42;;;;;;;6.90;2.10;;;;;;;10.75;62.52;102046.88;5030130;28;20046;-72
2023/06/02 05:03:27;;;;;;;12.00;2.35;;;;;;;10.70;63.11;102040.81;5010198;28;20518;-72
2023/06/02 05:06:12;;;;;;;8.40;2.30;;;;;;;10.69;63.19;102041.69;5018022;28;20050;-73
2023/06/02 05:08:58;;;;;;;11.20;2.60;;;;;;;10.68;62.93;102046.06;5030939;28;20129;-73
2023/06/02 05:11:44;;;;;;;11.05;2.45;;;;;;;10.70;63.44;102052.22;5016755;28;20125;-73
2023/06/02 05:14:29;;;;;;;10.82;3.28;;;;;;;10.76;63.52;102051.28;5029801;28;20046;-73
2023/06/02 05:17:22;;;;;;;11.52;2.80;;;;;;;10.81;62.90;102051.22;5023544;28;20053;-73
2023/06/02 05:20:10;;;;;;;12.90;2.58;;;;;;;10.82;62.88;102045.94;5023130;28;20771;-72
2023/06/02 05:22:55;;;;;;;8.82;2.08;;;;;;;10.88;62.89;102052.91;5007051;28;20049;-73
2023/06/02 05:25:41;;;;;;;10.95;2.97;;;;;;;10.90;62.58;102050.25;5021340;28;20546;-73
2023/06/02 05:28:26;;;;;;;10.52;2.75;;;;;;;10.85;62.66;102052.94;5026962;28;20117;-73
2023/06/02 05:31:11;;;;;;;12.32;2.75;;;;;;;10.79;63.11;102060.91;5025576;28;20054;-72
2023/06/02 05:33:58;;;;;;;16.58;2.95;;;;;;;10.82;63.40;102051.22;5009722;28;20128;-75
2023/06/02 05:36:44;;;;;;;17.15;3.00;;;;;;;10.86;62.98;102049.41;5009558;28;20046;-73
2023/06/02 05:39:32;;;;;;;10.55;2.28;;;;;;;10.87;62.97;102049.38;5023840;28;20050;-73
2023/06/02 05:42:17;;;;;;;16.13;2.92;;;;;;;10.87;62.90;102052.03;5024491;28;20481;-73
2023/06/02 05:45:05;;;;;;;12.40;2.83;;;;;;;10.91;62.97;102052.00;5001862;28;20125;-72
2023/06/02 05:47:53;;;;;;;8.85;2.30;;;;;;;10.91;62.91;102049.34;5021249;28;20046;-72
2023/06/02 05:50:43;;;;;;;12.98;2.60;;;;;;;10.99;62.56;102050.97;5006504;28;20542;-72
2023/06/02 05:53:29;;;;;;;10.45;2.30;;;;;;;10.97;62.26;102049.25;5009454;28;20046;-72
2023/06/02 05:56:17;;;;;;;11.85;2.70;;;;;;;10.96;62.52;102048.41;5006390;28;20056;-72
2023/06/02 05:59:04;;;;;;;9.85;2.22;;;;;;;10.97;62.92;102047.53;5012083;28;20062;-72
2023/06/02 06:01:50;;;;;;;10.55;2.75;;;;;;;11.14;62.46;102047.28;5002410;28;20050;-72
2023/06/02 06:04:35;;;;;;;14.18;2.95;;;;;;;11.18;62.25;102041.06;5032118;28;20672;-72
2023/06/02 06:07:21;;;;;;;10.32;2.60;;;;;;;11.24;61.84;102045.41;5009251;28;20046;-72
2023/06/02 06:10:07;;;;;;;11.25;2.70;;;;;;;11.29;60.79;102047.97;5004438;28;20137;-72
2023/06/02 06:12:53;;;;;;;18.55;3.33;;;;;;;11.24;61.47;102044.53;5015197;28;20050;-72
2023/06/02 06:15:38;;;;;;;9.18;2.45;;;;;;;11.34;61.13;102043.50;5024239;28;20522;-72
2023/06/02 06:18:25;;;;;;;15.88;2.78;;;;;;;11.31;61.52;102043.53;5010432;28;20054;-72
2023/06/02 06:21:11;;;;;;;9.23;2.38;;;;;;;11.45;60.63;102046.84;5019381;28;20046;-71
2023/06/02 06:23:56;;;;;;;9.35;2.38;;;;;;;11.42;60.65;102046.91;5020905;28;20054;-71
2023/06/02 06:26:41;;;;;;;12.20;2.20;;;;;;;11.40;60.97;102043.41;5025149;28;20137;-71
2023/06/02 06:29:27;;;;;;;13.20;2.40;;;;;;;11.54;60.13;102047.63;5027958;28;20502;-72
2023/06/02 06:32:13;;;;;;;11.85;2.78;;;;;;;11.49;60.27;102052.97;4995754;28;20136;-71
2023/06/02 06:34:59;;;;;;;16.33;2.88;;;;;;;11.50;60.88;102046.78;5024614;28;20046;-72
2023/06/02 06:37:45;;;;;;;11.80;2.80;;;;;;;11.75;60.01;102055.19;5010965;28;20082;-72
2023/06/02 06:40:31;;;;;;;12.73;2.72;;;;;;;11.76;60.07;102046.38;5006700;28;20042;-72
2023/06/02 06:43:17;;;;;;;9.82;2.20;;;;;;;11.85;60.07;102050.66;5025101;28;20050;-71
2023/06/02 06:46:10;;;;;;;11.20;2.75;;;;;;;11.93;59.93;102045.25;5011297;28;20088;-72
2023/06/02 06:48:55;;;;;;;11.20;2.45;;;;;;;12.08;59.75;102044.13;5030020;28;20042;-71
2023/06/02 06:51:41;;;;;;;8.05;2.05;;;;;;;12.24;58.79;102050.03;5030213;28;20157;-72
2023/06/02 06:54:26;;;;;;;10.95;2.63;;;;;;;12.28;58.78;102059.63;5029556;28;20050;-72
2023/06/02 06:57:11;;;;;;;10.43;2.33;;;;;;;12.34;57.15;102053.38;5029710;28;20050;-71
2023/06/02 06:59:56;;;;;;;7.57;1.88;;;;;;;12.31;57.12;102058.72;5030088;28;20045;-72
2023/06/02 07:02:43;;;;;;;8.70;2.30;;;;;;;12.35;57.16;102057.75;5011805;28;20042;-72
2023/06/02 07:05:29;;;;;;;12.05;2.50;;;;;;;12.41;57.44;102058.50;5014861;28;20141;-72
2023/06/02 07:08:14;;;;;;;10.70;2.00;;;;;;;12.54;56.58;102058.28;5001146;28;20057;-71
2023/06/02 07:11:00;;;;;;;9.32;2.10;;;;;;;12.57;56.42;102050.28;5029564;28;20034;-71
2023/06/02 07:13:45;;;;;;;7.80;1.65;;;;;;;12.65;56.37;102055.44;5014630;28;20527;-72
2023/06/02 07:16:30;;;;;;;11.07;2.10;;;;;;;12.70;56.57;102059.72;4996874;28;20050;-72
2023/06/02 07:19:16;;;;;;;8.85;2.13;;;;;;;12.81;55.76;102051.59;5022495;28;20518;-72
2023/06/02 07:22:01;;;;;;;15.05;2.33;;;;;;;12.87;56.12;102054.09;5013775;28;20157;-72
2023/06/02 07:24:46;;;;;;;7.28;1.90;;;;;;;13.12;55.59;102055.34;5028659;28;20482;-72
2023/06/02 07:27:32;;;;;;;6.18;2.28;;;;;;;13.45;54.47;102060.84;4999525;28;20982;-72
2023/06/02 07:30:18;;;;;;;10.93;2.00;;;;;;;13.49;54.50;102058.09;5022161;28;20057;-72
2023/06/02 07:33:03;;;;;;;12.45;2.67;;;;;;;13.56;53.53;102064.13;5028870;28;20091;-72
2023/06/02 07:35:48;;;;;;;13.43;2.10;;;;;;;13.55;53.96;102065.03;5026509;28;20046;-72
2023/06/02 07:38:34;;;;;;;8.80;1.95;;;;;;;13.65;53.49;102065.66;5024344;28;20050;-71
2023/06/02 07:41:20;;;;;;;8.30;2.00;;;;;;;13.65;53.38;102063.00;5012606;28;20042;-72
2023/06/02 07:44:06;;;;;;;12.57;2.10;;;;;;;13.60;53.68;102056.97;5033760;28;20056;-72
2023/06/02 07:46:51;;;;;;;9.43;2.00;;;;;;;13.69;53.29;102058.50;5037205;28;20056;-71
2023/06/02 07:49:37;;;;;;;8.27;2.38;;;;;;;13.69;53.53;102067.34;5022640;28;20042;-72
2023/06/02 07:52:23;;;;;;;9.32;2.25;;;;;;;13.73;53.06;102062.84;5027182;28;20042;-72
2023/06/02 07:55:09;;;;;;;10.43;2.15;;;;;;;13.64;53.56;102064.81;5010914;28;20121;-72
2023/06/02 07:57:55;;;;;;;12.70;2.40;;;;;;;13.72;54.02;102066.38;5021366;28;20634;-71
2023/06/02 08:00:41;;;;;;;12.10;2.40;;;;;;;13.77;53.67;102056.56;5026079;28;20045;-71
2023/06/02 08:03:26;;;;;;;6.93;1.83;;;;;;;13.83;53.52;102061.69;5027992;28;20042;-72
2023/06/02 08:06:13;;;;;;;8.25;1.80;;;;;;;13.89;53.36;102060.69;5027589;28;20569;-72
2023/06/02 08:08:59;;;;;;;10.32;2.25;;;;;;;13.80;53.43;102062.66;5028662;28;20058;-71
2023/06/02 08:11:44;;;;;;;10.85;2.17;;;;;;;13.73;54.72;102068.13;5026717;28;21009;-71
2023/06/02 08:14:30;;;;;;;9.35;2.55;;;;;;;13.84;54.37;102063.44;5028613;28;20471;-72
2023/06/02 08:17:15;;;;;;;11.02;2.42;;;;;;;13.92;54.24;102065.91;5014440;28;20132;-72
2023/06/02 08:20:03;;;;;;;13.55;2.67;;;;;;;13.94;53.32;102064.06;5022083;28;20515;-72
2023/06/02 08:22:48;;;;;;;9.98;2.30;;;;;;;13.90;53.74;102055.31;5026080;28;20493;-71
2023/06/02 08:25:38;;;;;;;10.82;2.50;;;;;;;13.94;54.06;102061.41;5013125;28;20046;-71
2023/06/02 08:28:25;;;;;;;7.95;2.30;;;;;;;14.06;53.59;102062.91;5021680;28;20048;-71
2023/06/02 08:31:10;;;;;;;12.32;2.40;;;;;;;14.03;53.78;102057.69;5039181;28;20093;-71
2023/06/02 08:33:55;;;;;;;14.90;2.72;;;;;;;14.15;54.51;102060.03;5027712;28;20587;-71
2023/06/02 08:36:40;;;;;;;11.95;2.85;;;;;;;14.31;53.81;102062.25;5025920;28;20057;-71
2023/06/02 08:39:29;;;;;;;11.10;2.50;;;;;;;14.33;53.03;102065.75;5021210;28;20846;-71
2023/06/02 08:42:16;;;;;;;7.65;2.22;;;;;;;14.40;52.98;102069.97;5007293;28;20223;-71
2023/06/02 08:45:05;;;;;;;10.15;2.17;;;;;;;14.59;52.43;102062.38;5027869;28;20117;-71
2023/06/02 08:47:54;;;;;;;12.25;2.50;;;;;;;14.67;52.94;102067.53;5029025;28;20061;-70
2023/06/02 08:50:45;;;;;;;8.27;2.33;;;;;;;14.81;53.03;102061.81;5027580;28;20434;-71
2023/06/02 08:53:33;;;;;;;9.32;2.50;;;;;;;14.97;52.68;102055.13;5029173;28;20046;-70
2023/06/02 08:56:19;;;;;;;9.43;2.70;;;;;;;15.13;51.17;102052.03;5026779;28;20530;-71
2023/06/02 08:59:04;;;;;;;12.98;2.78;;;;;;;15.02;51.52;102060.31;5027713;28;20573;-70
2023/06/02 09:01:50;;;;;;;21.15;3.45;;;;;;;14.95;52.44;102056.09;5026257;28;21049;-71
2023/06/02 09:04:36;;;;;;;10.02;2.25;;;;;;;15.00;52.00;102059.50;5013830;28;20046;-71
2023/06/02 09:07:21;;;;;;;8.88;2.38;;;;;;;15.04;52.12;102058.47;4994132;28;20503;-71
2023/06/02 09:10:07;;;;;;;8.05;2.10;;;;;;;15.20;51.54;102053.59;5008460;28;20138;-70
2023/06/02 09:12:53;;;;;;;6.45;2.15;;;;;;;15.01;51.80;102061.22;5006468;28;20070;-71
2023/06/02 09:15:58;;;;;;;13.30;2.45;;;;;;;14.99;52.57;102066.59;5009815;28;20046;-71
2023/06/02 09:18:56;;;;;;;8.30;2.60;;;;;;;15.01;52.77;102067.41;5008610;28;20046;-71
2023/06/02 09:21:42;;;;;;;11.23;2.50;;;;;;;15.15;52.19;102067.00;5021906;28;20053;-71
2023/06/02 09:24:32;;;;;;;6.13;2.25;;;;;;;15.13;52.53;102067.97;5025373;28;20065;-71
2023/06/02 09:27:18;;;;;;;13.85;2.95;;;;;;;15.06;53.21;102065.47;5027699;28;20082;-71
2023/06/02 09:30:04;;;;;;;10.88;2.60;;;;;;;15.15;53.07;102059.03;5035297;28;20049;-71
2023/06/02 09:33:11;;;;;;;12.63;2.67;;;;;;;15.25;52.66;102062.31;5047609;28;20105;-71
2023/06/02 09:35:56;;;;;;;11.80;2.60;;;;;;;15.26;52.65;102052.53;5048154;28;20045;-71
2023/06/02 09:38:43;;;;;;;11.45;2.80;;;;;;;15.14;52.73;102059.94;5048115;28;20846;-71
2023/06/02 09:41:31;;;;;;;13.18;2.80;;;;;;;15.15;53.16;102067.00;5047775;28;20540;-71
2023/06/02 09:44:18;;;;;;;11.07;2.65;;;;;;;15.15;53.79;102052.88;5047692;28;20038;-71
2023/06/02 09:47:22;;;;;;;11.10;2.53;;;;;;;15.26;53.39;102057.84;5038808;28;20501;-71
2023/06/02 09:50:29;;;;;;;13.63;3.00;;;;;;;15.17;53.29;102058.97;5006813;28;20090;-71
2023/06/02 09:53:17;;;;;;;9.52;2.38;;;;;;;15.24;53.46;102059.66;5007708;28;20046;-71
2023/06/02 09:56:06;;;;;;;10.00;2.50;;;;;;;15.28;53.94;102053.34;5007928;28;20141;-71
2023/06/02 09:58:54;;;;;;;11.88;2.60;;;;;;;15.40;53.77;102057.41;5009685;28;20121;-71
2023/06/02 10:01:41;;;;;;;12.45;2.85;;;;;;;15.45;53.71;102058.16;5026200;28;20049;-71
2023/06/02 10:04:27;;;;;;;10.50;2.80;;;;;;;15.55;53.52;102053.41;5016228;28;20065;-71
2023/06/02 10:07:54;;;;;;;10.95;2.70;;;;;;;15.68;53.25;102054.75;5023909;28;20200;-71
2023/06/02 10:11:03;;;;;;;12.35;2.75;;;;;;;15.87;53.08;102055.06;5026702;28;20046;-71
2023/06/02 10:14:15;;;;;;;10.32;2.90;;;;;;;16.02;52.56;102059.00;5006157;28;20540;-71
2023/06/02 10:17:43;;;;;;;10.55;3.17;;;;;;;16.27;52.32;102055.47;5008421;28;20054;-71
2023/06/02 10:21:18;;;;;;;10.02;2.85;;;;;;;16.48;51.17;102058.28;5027139;28;20038;-71
2023/06/02 10:24:23;;;;;;;8.52;3.05;;;;;;;16.42;51.14;102049.63;5025377;28;20130;-71
2023/06/02 10:27:27;;;;;;;;;;;;;;;16.42;51.56;102043.41;5026484;28;20053;-71
2023/06/02 10:30:20;;;;;;;16.58;2.42;;;;;;;16.49;51.88;102054.72;5026521;28;19921;-71
2023/06/02 10:33:07;;;;;;;20.65;3.55;;;;;;;16.63;51.99;102044.44;5027214;28;20061;-71
2023/06/02 10:35:59;;;;;;;9.82;2.67;;;;;;;16.90;51.08;102044.31;5018677;28;20051;-71
2023/06/02 10:38:46;;;;;;;10.07;2.88;;;;;;;17.03;50.58;102042.09;5009396;28;20368;-72
2023/06/02 10:42:10;;;;;;;12.35;3.20;;;;;;;17.03;50.36;102047.41;5027428;28;20046;-71
2023/06/02 10:45:23;;;;;;;6.95;2.75;;;;;;;17.19;51.00;102032.59;5008898;28;20549;-71
2023/06/02 10:48:37;;;;;;;11.85;2.97;;;;;;;17.54;49.98;102035.63;5011564;28;20089;-71
2023/06/02 10:51:23;;;;;;;7.82;2.78;;;;;;;17.70;49.00;102046.53;5014949;28;20050;-71
2023/06/02 10:54:09;;;;;;;9.73;2.60;;;;;;;17.65;49.08;102036.97;5027199;28;20144;-71
2023/06/02 10:56:58;;;;;;;9.88;2.90;;;;;;;17.56;48.77;102043.53;5026517;28;20078;-71
2023/06/02 10:59:44;;;;;;;13.75;2.85;;;;;;;17.34;49.74;102041.78;5024461;28;20101;-72
2023/06/02 11:02:49;;;;;;;10.27;2.80;;;;;;;17.29;49.51;102037.56;5027216;28;20045;-71
2023/06/02 11:05:35;;;;;;;12.07;3.45;;;;;;;17.18;49.81;102040.63;5011815;28;20054;-71
2023/06/02 11:08:21;;;;;;;14.30;3.40;;;;;;;17.19;51.28;102043.25;5009850;28;20189;-71
2023/06/02 11:11:06;;;;;;;16.95;3.13;;;;;;;17.46;50.73;102034.19;5027249;28;20129;-71
2023/06/02 11:13:58;;;;;;;10.13;3.42;;;;;;;17.64;49.68;102036.13;5025273;28;20046;-72
2023/06/02 11:16:43;;;;;;;14.70;3.40;;;;;;;17.59;49.70;102038.09;5026355;28;20042;-71
2023/06/02 11:19:49;;;;;;;9.20;3.38;;;;;;;17.46;49.73;102036.84;5011382;28;20038;-71
2023/06/02 11:22:36;;;;;;;8.98;2.90;;;;;;;17.54;50.07;102034.78;5026879;28;20469;-71
2023/06/02 11:25:22;;;;;;;11.75;3.40;;;;;;;17.50;49.85;102042.00;5028998;28;20754;-71
2023/06/02 11:28:28;;;;;;;10.82;3.08;;;;;;;17.66;50.13;102044.91;5027812;28;20034;-71
2023/06/02 11:31:16;;;;;;;12.43;3.28;;;;;;;17.76;49.46;102036.53;5029674;28;20050;-72
2023/06/02 11:34:02;;;;;;;10.50;3.25;;;;;;;17.72;49.69;102038.44;5028733;28;20046;-72
2023/06/02 11:36:48;;;;;;;20.23;3.85;;;;;;;17.63;50.12;102039.72;5030608;28;20497;-71
2023/06/02 11:39:52;;;;;;;13.15;3.22;;;;;;;17.85;50.39;102038.84;5029778;28;20038;-71
2023/06/02 11:42:43;;;;;;;10.30;3.20;;;;;;;18.12;48.84;102035.94;5012703;28;20042;-72
2023/06/02 11:45:30;;;;;;;11.68;3.42;;;;;;;17.95;49.48;102037.50;5026577;28;20478;-71
2023/06/02 11:48:21;;;;;;;11.57;3.35;;;;;;;17.95;49.14;102033.97;5008380;28;20085;-72
2023/06/02 11:51:09;;;;;;;19.38;3.63;;;;;;;17.95;49.79;102034.84;5028083;28;20058;-71
2023/06/02 11:54:02;;;;;;;14.90;3.50;;;;;;;18.04;49.98;102032.75;5030285;28;20082;-71
2023/06/02 11:56:47;;;;;;;9.43;3.10;;;;;;;18.29;49.50;102024.53;5011902;28;20085;-72
2023/06/02 11:59:32;;;;;;;11.95;3.30;;;;;;;18.56;47.97;102025.09;5026713;28;20046;-72
2023/06/02 12:02:23;;;;;;;10.55;3.47;;;;;;;18.51;47.96;102023.59;5020397;28;20050;-71
2023/06/02 12:05:29;;;;;;;9.35;3.30;;;;;;;18.45;48.70;102025.56;5029504;28;20120;-71
2023/06/02 12:08:22;;;;;;;9.50;3.45;;;;;;;18.49;48.52;102023.63;5029026;28;20554;-71
2023/06/02 12:11:15;;;;;;;11.45;3.58;;;;;;;18.57;48.44;102026.81;5009677;28;20046;-71
2023/06/02 12:14:04;;;;;;;10.75;3.45;;;;;;;18.73;48.35;102024.31;5021242;28;20050;-71
2023/06/02 12:17:02;;;;;;;10.93;3.42;;;;;;;18.85;47.89;102022.91;5027358;28;20054;-72
2023/06/02 12:19:58;;;;;;;11.02;3.10;;;;;;;19.13;47.51;102016.28;5014535;28;20161;-72
2023/06/02 12:22:54;;;;;;;11.43;3.38;;;;;;;18.98;47.88;102012.53;5028359;28;20054;-71
2023/06/02 12:25:40;;;;;;;12.80;3.60;;;;;;;19.37;46.62;102019.56;5028336;28;20057;-72
2023/06/02 12:28:25;;;;;;;14.23;3.40;;;;;;;19.48;46.84;102021.72;5026404;28;20058;-72
2023/06/02 12:31:11;;;;;;;12.70;3.30;;;;;;;19.29;46.24;102020.84;5016994;28;20652;-72
2023/06/02 12:33:56;;;;;;;13.75;3.22;;;;;;;18.89;47.62;102020.94;5023286;28;20487;-72
2023/06/02 12:36:42;;;;;;;11.52;2.95;;;;;;;19.04;46.84;102032.75;5028299;28;20054;-72
2023/06/02 12:39:28;;;;;;;9.63;3.65;;;;;;;19.17;46.38;102019.66;5028452;28;21012;-72
2023/06/02 12:42:16;;;;;;;8.75;3.45;;;;;;;19.57;45.83;102019.53;5025941;28;20054;-72
2023/06/02 12:45:03;;;;;;;9.73;3.22;;;;;;;19.28;46.92;102020.00;5007282;28;20050;-71
2023/06/02 12:47:51;;;;;;;14.27;3.60;;;;;;;19.09;46.95;102023.56;5020112;28;20173;-72
2023/06/02 12:50:38;;;;;;;9.40;2.70;;;;;;;18.96;47.73;102034.91;5027484;28;20058;-72
2023/06/02 12:53:23;;;;;;;12.73;3.55;;;;;;;18.82;48.08;102030.19;5027098;28;20499;-72
2023/06/02 12:56:09;;;;;;;14.43;4.10;;;;;;;19.21;47.43;102022.09;5028094;28;20049;-71
2023/06/02 12:58:54;;;;;;;12.20;3.45;;;;;;;19.26;47.41;102011.19;5023947;28;20113;-72
2023/06/02 13:01:41;;;;;;;12.85;3.88;;;;;;;19.11;47.69;102018.13;5027064;28;20144;-72